Terminal Aerodrome Forecast
Issued by NWS

Current Version | Previous Version | Text Only | Print | Product List | Glossary Off
Versions: 1 2 3 4 5 6 7 8 9 10 11 12 13 14 15 16 17 18 19 20 21 22 23 24 25 26 27 28 29 30 31 32 33 34 35 36 37 38 39 40 41 42 43 44 45 46

000
FTUS41 KRNK 100521
TAFLWB
TAF
KLWB 100521Z 1006/1106 00000KT P6SM SCT070 BKN100
     FM100700 00000KT 4SM BR SCT050
     FM100900 00000KT 1/2SM FG BKN001
     FM101400 VRB03KT P6SM SCT035 BKN080
     FM101800 22004KT P6SM VCSH BKN045
     FM102300 VRB02KT P6SM SCT040 BKN100=

USA.gov is the U.S. government's official web portal to all federal, state and local government web resources and services.